Time;durP1;ratioP1;P1;durP2;ratioP2;P2;SDS_P1;SDS_P2;PMS_P1;PMS_P2;Temp;Humidity;BMP_temperature;BMP_pressure;BME280_temperature;BME280_humidity;BME280_pressure;Samples;Min_cycle;Max_cycle;Signal;HPM_P1;HPM_P2
2021/09/20 00:01:25;;;;;;;4.57;3.80;;;;;;;11.31;100.00;101017.84;5137894;27;20619;-76
2021/09/20 00:03:50;;;;;;;4.33;3.70;;;;;;;11.36;100.00;101020.47;5137790;27;20192;-76
2021/09/20 00:06:16;;;;;;;4.30;3.90;;;;;;;11.40;100.00;101020.69;5137996;27;20171;-76
2021/09/20 00:08:42;;;;;;;6.20;3.80;;;;;;;11.44;100.00;101027.19;5138020;27;20588;-76
2021/09/20 00:11:07;;;;;;;4.10;3.70;;;;;;;11.48;100.00;101025.47;5137892;27;20168;-76
2021/09/20 00:13:34;;;;;;;4.13;3.53;;;;;;;11.58;100.00;101028.00;5138169;27;20204;-77
2021/09/20 00:15:59;;;;;;;4.67;4.27;;;;;;;11.30;100.00;101030.72;5137878;27;20241;-76
2021/09/20 00:18:25;;;;;;;5.53;5.03;;;;;;;11.27;100.00;101028.56;5138107;27;20176;-76
2021/09/20 00:20:50;;;;;;;4.30;3.90;;;;;;;11.48;100.00;101029.00;5137837;27;20176;-76
2021/09/20 00:23:16;;;;;;;4.80;4.40;;;;;;;11.63;100.00;101031.44;5137801;27;20212;-76
2021/09/20 00:25:41;;;;;;;4.47;4.00;;;;;;;11.67;100.00;101031.66;5137795;27;20183;-77
2021/09/20 00:28:06;;;;;;;4.47;3.90;;;;;;;11.64;100.00;101026.78;5137930;27;20160;-76
2021/09/20 00:30:32;;;;;;;4.53;4.13;;;;;;;11.63;100.00;101027.91;5137660;27;20707;-76
2021/09/20 00:32:57;;;;;;;4.83;4.43;;;;;;;11.65;100.00;101028.41;5137796;27;20539;-76
2021/09/20 00:35:23;;;;;;;4.50;4.10;;;;;;;11.60;100.00;101023.03;5137755;27;20168;-75
2021/09/20 00:37:48;;;;;;;5.67;4.17;;;;;;;11.60;100.00;101025.78;5119165;27;20178;-75
2021/09/20 00:40:13;;;;;;;4.27;3.90;;;;;;;11.59;100.00;101021.44;5134046;27;20172;-76
2021/09/20 00:42:39;;;;;;;4.57;4.17;;;;;;;11.62;100.00;101026.28;5116018;27;20233;-76
2021/09/20 00:45:06;;;;;;;4.97;4.07;;;;;;;11.36;100.00;101020.47;5134214;27;20650;-76
2021/09/20 00:47:32;;;;;;;4.20;3.80;;;;;;;11.44;100.00;101027.19;5134431;27;20165;-76
2021/09/20 00:49:57;;;;;;;4.47;4.07;;;;;;;11.57;100.00;101023.63;5134764;27;20224;-77
2021/09/20 00:52:23;;;;;;;3.83;3.53;;;;;;;11.45;100.00;101035.09;5134167;27;20654;-76
2021/09/20 00:54:50;;;;;;;3.67;3.30;;;;;;;11.23;100.00;101022.09;5133842;27;20300;-76
2021/09/20 00:57:17;;;;;;;4.53;3.60;;;;;;;11.31;100.00;101028.81;5134256;27;20172;-75
2021/09/20 00:59:42;;;;;;;5.17;3.50;;;;;;;11.37;100.00;101032.25;5134271;27;20168;-76
2021/09/20 01:02:07;;;;;;;3.70;3.40;;;;;;;11.35;100.00;101035.28;5134227;27;20948;-76
2021/09/20 01:04:33;;;;;;;3.53;3.23;;;;;;;11.29;100.00;101031.84;5133752;27;20184;-76
2021/09/20 01:06:58;;;;;;;4.60;2.53;;;;;;;11.35;100.00;101029.81;5134106;27;20179;-77
2021/09/20 01:09:25;;;;;;;3.60;3.23;;;;;;;11.44;100.00;101036.22;5134115;27;20601;-76
2021/09/20 01:11:52;;;;;;;3.57;3.27;;;;;;;11.07;100.00;101036.34;5133778;27;20164;-76
2021/09/20 01:14:17;;;;;;;4.93;2.63;;;;;;;10.86;100.00;101030.41;5133727;27;20200;-76
2021/09/20 01:16:43;;;;;;;5.60;2.80;;;;;;;10.76;100.00;101033.31;5133772;27;20207;-76
2021/09/20 01:19:09;;;;;;;3.47;2.83;;;;;;;10.72;100.00;101031.19;5133832;27;20165;-76
2021/09/20 01:21:34;;;;;;;4.50;2.47;;;;;;;10.86;100.00;101036.69;5133738;27;20173;-76
2021/09/20 01:24:00;;;;;;;5.77;2.90;;;;;;;10.96;100.00;101032.97;5133276;27;20235;-76
2021/09/20 01:26:25;;;;;;;3.40;2.60;;;;;;;11.09;100.00;101036.84;5133460;27;20592;-76
2021/09/20 01:28:50;;;;;;;3.10;2.80;;;;;;;11.10;100.00;101044.75;5133666;27;20198;-76
2021/09/20 01:31:16;;;;;;;2.97;2.77;;;;;;;10.90;100.00;101042.38;5133602;27;20183;-76
2021/09/20 01:33:41;;;;;;;2.67;2.47;;;;;;;10.90;100.00;101042.38;5133274;27;20251;-76
2021/09/20 01:36:06;;;;;;;3.20;3.00;;;;;;;10.81;100.00;101046.88;5133548;27;20253;-76
2021/09/20 01:38:32;;;;;;;3.20;2.90;;;;;;;10.88;100.00;101045.41;5133416;27;20172;-75
2021/09/20 01:40:57;;;;;;;4.93;3.07;;;;;;;10.86;100.00;101042.16;5133241;27;20548;-76
2021/09/20 01:43:22;;;;;;;3.97;2.80;;;;;;;10.98;100.00;101039.75;5133179;27;20678;-76
2021/09/20 01:45:48;;;;;;;3.63;2.73;;;;;;;10.99;100.00;101044.13;5133149;27;20243;-76
2021/09/20 01:48:16;;;;;;;5.03;2.83;;;;;;;10.84;100.00;101051.75;5133167;27;20260;-76
2021/09/20 01:50:42;;;;;;;2.77;2.57;;;;;;;10.76;100.00;101041.50;5132713;27;20480;-77
2021/09/20 01:53:07;;;;;;;3.80;3.50;;;;;;;10.77;100.00;101040.41;5132511;27;20169;-76
2021/09/20 01:55:32;;;;;;;4.17;2.77;;;;;;;10.78;100.00;101037.34;5114424;27;20160;-76
2021/09/20 01:57:58;;;;;;;3.10;2.80;;;;;;;10.71;100.00;101035.03;5133132;27;20225;-76
2021/09/20 02:00:23;;;;;;;3.03;2.80;;;;;;;10.67;100.00;101035.88;5133022;27;20234;-76
2021/09/20 02:02:49;;;;;;;3.20;2.90;;;;;;;10.62;100.00;101031.31;5114362;27;20192;-76
2021/09/20 02:05:14;;;;;;;3.20;2.63;;;;;;;10.59;100.00;101033.84;5132962;27;20185;-76
2021/09/20 02:07:41;;;;;;;3.23;2.93;;;;;;;10.61;100.00;101040.63;5132838;27;20199;-76
2021/09/20 02:10:08;;;;;;;6.27;2.93;;;;;;;10.61;100.00;101039.81;5132657;27;20203;-76
2021/09/20 02:12:34;;;;;;;2.40;2.20;;;;;;;10.64;100.00;101037.31;5132591;27;20171;-76
2021/09/20 02:14:59;;;;;;;2.93;2.27;;;;;;;10.64;100.00;101042.78;5132492;27;20165;-76
2021/09/20 02:17:25;;;;;;;2.90;2.57;;;;;;;10.66;100.00;101045.19;5132590;27;20168;-76
2021/09/20 02:19:50;;;;;;;3.60;2.77;;;;;;;10.62;100.00;101042.25;5132630;27;20214;-76
2021/09/20 02:22:15;;;;;;;6.00;2.70;;;;;;;10.60;100.00;101049.94;5132243;27;20224;-77
2021/09/20 02:24:41;;;;;;;3.23;2.30;;;;;;;10.64;100.00;101047.41;5132329;27;20179;-76
2021/09/20 02:27:06;;;;;;;2.97;2.27;;;;;;;10.60;100.00;101041.75;5132379;27;20168;-76
2021/09/20 02:29:34;;;;;;;2.33;2.13;;;;;;;10.62;100.00;101045.00;5132569;27;20211;-76
2021/09/20 02:31:59;;;;;;;3.43;2.43;;;;;;;10.63;100.00;101060.28;5132285;27;20251;-76
2021/09/20 02:34:24;;;;;;;2.93;2.63;;;;;;;10.57;100.00;101049.72;5131938;27;20251;-76
2021/09/20 02:36:50;;;;;;;2.27;2.07;;;;;;;10.66;100.00;101040.53;5132106;27;20168;-76
2021/09/20 02:39:15;;;;;;;2.73;2.53;;;;;;;10.60;100.00;101049.94;5132782;27;20165;-76
2021/09/20 02:41:41;;;;;;;4.40;2.40;;;;;;;10.55;100.00;101050.00;5132247;27;20283;-76
2021/09/20 02:44:07;;;;;;;2.80;2.53;;;;;;;10.54;100.00;101051.09;5131882;27;20236;-76
2021/09/20 02:46:32;;;;;;;2.23;2.03;;;;;;;10.52;100.00;101056.06;5132006;27;20172;-76
2021/09/20 02:48:58;;;;;;;2.97;2.60;;;;;;;10.53;100.00;101057.69;5132069;27;20177;-76
2021/09/20 02:51:23;;;;;;;2.73;2.43;;;;;;;10.56;100.00;101059.84;5131912;27;20266;-75
2021/09/20 02:53:48;;;;;;;2.50;2.30;;;;;;;10.58;100.00;101063.09;5131641;27;20173;-76
2021/09/20 02:56:14;;;;;;;3.37;2.67;;;;;;;10.57;100.00;101060.66;5113528;27;20174;-76
2021/09/20 02:58:39;;;;;;;2.30;2.10;;;;;;;10.60;100.00;101060.88;5113450;27;20263;-75
2021/09/20 03:01:05;;;;;;;2.63;2.23;;;;;;;10.67;100.00;101055.03;5131771;27;20183;-76
2021/09/20 03:03:30;;;;;;;3.33;2.77;;;;;;;10.56;100.00;101057.13;5130816;27;20679;-76
2021/09/20 03:05:55;;;;;;;1.70;1.60;;;;;;;10.60;100.00;101069.06;5131541;27;20181;-76
2021/09/20 03:08:21;;;;;;;2.77;2.13;;;;;;;10.55;100.00;101065.59;5131710;27;20179;-76
2021/09/20 03:10:46;;;;;;;1.77;1.60;;;;;;;10.55;100.00;101066.41;5131617;27;20180;-75
2021/09/20 03:13:11;;;;;;;2.70;2.40;;;;;;;10.49;100.00;101064.84;5131536;27;20243;-76
2021/09/20 03:15:37;;;;;;;2.00;1.57;;;;;;;10.57;100.00;101068.84;5131523;27;20176;-76
2021/09/20 03:18:02;;;;;;;2.37;1.67;;;;;;;10.54;100.00;101072.16;5131513;27;20279;-76
2021/09/20 03:20:28;;;;;;;1.43;1.33;;;;;;;10.54;100.00;101075.69;5131619;27;20169;-76
2021/09/20 03:22:53;;;;;;;2.50;1.67;;;;;;;10.60;100.00;101081.91;5131474;27;20239;-76
2021/09/20 03:25:19;;;;;;;1.97;1.77;;;;;;;10.60;100.00;101090.94;5131366;27;20592;-76
2021/09/20 03:27:45;;;;;;;1.60;1.50;;;;;;;10.65;100.00;101090.03;5131601;28;20172;-76
2021/09/20 03:30:12;;;;;;;3.87;2.17;;;;;;;10.57;100.00;101086.06;5131493;28;20172;-75
2021/09/20 03:32:38;;;;;;;2.53;1.77;;;;;;;10.49;100.00;101089.44;5131278;27;20177;-76
2021/09/20 03:35:05;;;;;;;1.93;1.70;;;;;;;10.58;100.00;101089.59;5131130;28;20187;-76
2021/09/20 03:37:30;;;;;;;2.37;1.97;;;;;;;10.65;100.00;101090.84;5131316;28;20224;-75
2021/09/20 03:39:56;;;;;;;1.90;1.53;;;;;;;10.66;100.00;101091.66;5131434;27;20172;-76
2021/09/20 03:42:21;;;;;;;1.77;1.60;;;;;;;10.57;100.00;101091.53;5131295;27;20196;-76
2021/09/20 03:44:47;;;;;;;1.63;1.27;;;;;;;10.47;100.00;101086.19;5131068;28;20176;-76
2021/09/20 03:47:12;;;;;;;3.40;1.93;;;;;;;10.47;100.00;101096.31;5131308;28;20168;-76
2021/09/20 03:49:37;;;;;;;2.73;1.63;;;;;;;10.54;100.00;101094.81;5131266;28;20253;-76
2021/09/20 03:52:03;;;;;;;1.90;1.60;;;;;;;10.49;100.00;101097.63;5112783;28;20630;-76
2021/09/20 03:54:28;;;;;;;1.80;1.70;;;;;;;10.46;100.00;101095.50;5130921;28;20175;-76
2021/09/20 03:56:54;;;;;;;2.30;2.10;;;;;;;10.46;100.00;101087.31;5112852;28;20624;-76
2021/09/20 03:59:19;;;;;;;2.00;1.73;;;;;;;10.40;100.00;101086.53;5112687;28;20179;-75
2021/09/20 04:01:44;;;;;;;1.53;1.43;;;;;;;10.36;100.00;101090.97;5131350;28;20722;-76
2021/09/20 04:04:10;;;;;;;2.03;1.90;;;;;;;10.37;100.00;101089.06;5118374;28;20216;-77
2021/09/20 04:06:35;;;;;;;2.03;1.53;;;;;;;10.38;100.00;101098.88;5140515;28;20173;-76
2021/09/20 04:09:02;;;;;;;2.27;1.57;;;;;;;10.39;100.00;101092.31;5132654;28;20169;-76
2021/09/20 04:11:28;;;;;;;2.00;1.30;;;;;;;10.37;100.00;101091.78;5132126;28;20867;-76
2021/09/20 04:13:54;;;;;;;1.60;1.50;;;;;;;10.35;100.00;101088.53;5131938;27;20191;-75
2021/09/20 04:16:19;;;;;;;2.40;1.40;;;;;;;10.39;100.00;101087.66;5135219;27;20172;-76
2021/09/20 04:18:45;;;;;;;1.33;1.23;;;;;;;10.37;100.00;101092.59;5116533;27;20237;-76
2021/09/20 04:21:10;;;;;;;1.60;1.50;;;;;;;10.37;100.00;101100.78;5116577;27;20194;-76
2021/09/20 04:23:36;;;;;;;2.17;1.40;;;;;;;10.42;100.00;101094.47;5134936;27;20292;-77
2021/09/20 04:26:01;;;;;;;1.20;1.10;;;;;;;10.39;100.00;101098.59;5134909;27;20177;-76
2021/09/20 04:28:27;;;;;;;1.10;1.00;;;;;;;10.52;100.00;101101.69;5134928;27;20180;-77
2021/09/20 04:30:52;;;;;;;2.17;1.50;;;;;;;10.46;100.00;101105.63;5135105;27;20165;-76
2021/09/20 04:33:20;;;;;;;1.73;1.30;;;;;;;10.47;100.00;101109.97;5134804;27;20173;-76
2021/09/20 04:35:46;;;;;;;1.70;1.00;;;;;;;10.48;100.00;101109.69;5134683;27;20179;-76
2021/09/20 04:38:12;;;;;;;1.77;1.37;;;;;;;10.48;100.00;101108.88;5135000;27;20172;-76
2021/09/20 04:40:39;;;;;;;1.40;1.30;;;;;;;10.43;100.00;101117.94;5134726;27;20513;-77
2021/09/20 04:43:07;;;;;;;1.70;1.20;;;;;;;10.55;100.00;101121.03;5134331;27;20597;-75
2021/09/20 04:45:33;;;;;;;1.03;0.93;;;;;;;10.43;100.00;101129.69;5134371;27;20245;-76
2021/09/20 04:47:58;;;;;;;1.50;1.40;;;;;;;10.33;100.00;101132.53;5134482;27;20612;-75
2021/09/20 04:50:23;;;;;;;1.80;1.27;;;;;;;10.40;100.00;101129.44;5134438;27;20215;-75
2021/09/20 04:52:49;;;;;;;1.67;1.20;;;;;;;10.43;100.00;101139.81;5134404;27;20172;-75
2021/09/20 04:55:14;;;;;;;2.53;1.40;;;;;;;10.47;100.00;101135.38;5134005;27;20164;-76
2021/09/20 04:57:40;;;;;;;2.40;1.50;;;;;;;10.40;100.00;101143.09;5134230;27;20172;-76
2021/09/20 05:00:07;;;;;;;1.27;1.17;;;;;;;10.43;100.00;101132.41;5134278;27;20259;-76
2021/09/20 05:02:33;;;;;;;1.20;1.10;;;;;;;10.39;100.00;101142.28;5134282;27;20801;-76
2021/09/20 05:04:58;;;;;;;1.70;1.30;;;;;;;10.39;100.00;101136.81;5133916;27;20185;-77
2021/09/20 05:07:25;;;;;;;2.03;1.30;;;;;;;10.47;100.00;101134.56;5134186;27;20284;-76
2021/09/20 05:09:51;;;;;;;2.77;1.13;;;;;;;10.55;100.00;101148.38;5115699;27;20572;-76
2021/09/20 05:12:16;;;;;;;2.40;1.53;;;;;;;10.46;100.00;101144.69;5134130;27;20173;-76
2021/09/20 05:14:42;;;;;;;2.67;1.77;;;;;;;10.32;100.00;101144.56;5133746;27;20640;-76
2021/09/20 05:17:07;;;;;;;2.60;1.83;;;;;;;10.37;100.00;101146.41;5134066;27;20508;-76
2021/09/20 05:19:32;;;;;;;3.43;1.57;;;;;;;10.39;100.00;101153.22;5133950;27;20257;-76
2021/09/20 05:21:58;;;;;;;2.47;1.50;;;;;;;10.36;100.00;101139.34;5133807;27;20175;-77
2021/09/20 05:24:23;;;;;;;2.03;1.70;;;;;;;10.38;100.00;101139.84;5133514;27;20642;-76
2021/09/20 05:26:49;;;;;;;2.00;1.60;;;;;;;10.34;100.00;101145.09;5132942;27;20184;-75
2021/09/20 05:29:15;;;;;;;2.60;1.60;;;;;;;10.41;100.00;101151.03;5133512;27;20196;-76
2021/09/20 05:31:40;;;;;;;1.33;1.23;;;;;;;10.58;100.00;101155.19;5133715;27;20521;-77
2021/09/20 05:34:06;;;;;;;1.47;1.20;;;;;;;10.49;100.00;101149.53;5133363;27;20294;-76
2021/09/20 05:36:32;;;;;;;1.80;1.50;;;;;;;10.38;100.00;101154.31;5133618;27;20620;-75
2021/09/20 05:38:57;;;;;;;2.73;1.13;;;;;;;10.57;100.00;101159.03;5133379;27;20643;-73
2021/09/20 05:41:23;;;;;;;1.97;1.23;;;;;;;10.55;100.00;101159.28;5133356;27;20176;-73
2021/09/20 05:43:48;;;;;;;4.83;1.53;;;;;;;10.68;100.00;101163.22;5133185;27;20292;-72
2021/09/20 05:46:13;;;;;;;1.40;1.30;;;;;;;10.49;100.00;101160.47;5133577;27;20251;-74
2021/09/20 05:48:39;;;;;;;2.33;1.10;;;;;;;10.61;100.00;101160.06;5133186;27;20164;-74
2021/09/20 05:51:05;;;;;;;2.10;1.23;;;;;;;10.50;100.00;101159.38;5133669;27;20256;-74
2021/09/20 05:53:30;;;;;;;2.40;1.40;;;;;;;10.47;100.00;101173.63;5132864;27;20176;-74
2021/09/20 05:55:56;;;;;;;6.40;1.67;;;;;;;10.44;100.00;101174.22;5132919;27;20217;-75
2021/09/20 05:58:21;;;;;;;3.70;1.17;;;;;;;10.52;100.00;101179.00;5133096;27;20175;-75
2021/09/20 06:00:47;;;;;;;1.20;1.10;;;;;;;10.52;100.00;101181.75;5133073;27;20253;-74
2021/09/20 06:03:12;;;;;;;2.83;1.40;;;;;;;10.54;100.00;101185.00;5132913;27;20279;-75
2021/09/20 06:05:38;;;;;;;1.37;1.27;;;;;;;10.59;100.00;101186.88;5132635;27;20187;-75
2021/09/20 06:08:06;;;;;;;2.50;1.83;;;;;;;10.53;100.00;101179.81;5132958;27;20189;-75
2021/09/20 06:10:31;;;;;;;2.50;1.90;;;;;;;10.52;100.00;101186.38;5133029;27;20168;-74
2021/09/20 06:12:57;;;;;;;1.37;1.27;;;;;;;10.61;100.00;101190.13;5132827;27;20183;-74
2021/09/20 06:15:22;;;;;;;2.07;1.33;;;;;;;10.71;100.00;101190.78;5132573;27;20584;-75
2021/09/20 06:17:47;;;;;;;1.93;1.30;;;;;;;10.93;100.00;101192.94;5132657;27;20179;-75
2021/09/20 06:20:13;;;;;;;1.70;1.57;;;;;;;10.90;100.00;101195.47;5132442;27;20243;-73
2021/09/20 06:22:39;;;;;;;1.43;1.33;;;;;;;10.86;100.00;101197.16;5132448;27;20249;-75
2021/09/20 06:25:06;;;;;;;3.20;1.20;;;;;;;10.68;100.00;101185.91;5132383;27;20171;-75
2021/09/20 06:27:31;;;;;;;2.43;1.50;;;;;;;10.55;100.00;101192.06;5132489;27;20264;-75
2021/09/20 06:29:57;;;;;;;1.97;1.63;;;;;;;10.52;100.00;101194.59;5113962;27;20270;-74
2021/09/20 06:32:22;;;;;;;1.47;1.17;;;;;;;10.55;100.00;101194.81;5132481;27;20180;-75
2021/09/20 06:34:48;;;;;;;3.67;1.37;;;;;;;10.63;100.00;101188.72;5131894;27;20180;-75
2021/09/20 06:37:13;;;;;;;2.47;1.17;;;;;;;10.61;100.00;101196.38;5131560;27;20194;-74
2021/09/20 06:39:39;;;;;;;1.33;1.23;;;;;;;10.53;100.00;101197.03;5131948;27;20360;-74
2021/09/20 06:42:06;;;;;;;1.57;1.17;;;;;;;10.50;100.00;101188.59;5132081;27;20234;-75
2021/09/20 06:44:32;;;;;;;1.77;1.60;;;;;;;10.56;100.00;101193.72;5131879;27;20169;-73
2021/09/20 06:46:58;;;;;;;1.50;1.40;;;;;;;10.67;100.00;101194.38;5132042;27;20764;-74
2021/09/20 06:49:23;;;;;;;2.20;1.73;;;;;;;10.65;100.00;101188.41;5131662;27;20263;-75
2021/09/20 06:51:50;;;;;;;1.83;1.67;;;;;;;10.86;100.00;101181.56;5132032;27;20175;-74
2021/09/20 06:54:20;;;;;;;1.83;1.50;;;;;;;10.94;100.00;101182.81;5131686;27;20528;-74
2021/09/20 06:56:45;;;;;;;1.87;1.70;;;;;;;11.11;100.00;101193.22;5131897;27;20196;-74
2021/09/20 06:59:11;;;;;;;1.43;1.17;;;;;;;10.99;100.00;101188.19;5131785;27;20272;-74
2021/09/20 07:01:36;;;;;;;1.57;1.37;;;;;;;11.09;100.00;101192.72;5131729;27;20208;-75
2021/09/20 07:04:02;;;;;;;1.73;1.63;;;;;;;10.99;100.00;101189.03;5131684;27;20628;-74
2021/09/20 07:06:28;;;;;;;2.33;1.57;;;;;;;10.90;100.00;101193.53;5131842;27;20169;-74
2021/09/20 07:08:53;;;;;;;2.37;1.77;;;;;;;11.01;100.00;101186.00;5131726;27;20168;-73
2021/09/20 07:11:19;;;;;;;2.30;1.60;;;;;;;10.90;100.00;101187.25;5131737;27;20175;-73
2021/09/20 07:13:44;;;;;;;3.37;1.67;;;;;;;10.77;100.00;101186.06;5131655;27;20169;-72
2021/09/20 07:16:10;;;;;;;2.43;1.63;;;;;;;10.83;100.00;101193.06;5131629;27;20225;-72
2021/09/20 07:18:35;;;;;;;3.17;1.50;;;;;;;10.88;100.00;101194.94;5131659;27;20251;-73
2021/09/20 07:21:00;;;;;;;1.50;1.40;;;;;;;10.81;100.00;101191.75;5131683;27;20636;-73
2021/09/20 07:23:26;;;;;;;1.37;1.27;;;;;;;10.79;100.00;101202.16;5131636;27;20292;-73
2021/09/20 07:25:51;;;;;;;1.30;1.20;;;;;;;10.87;100.00;101205.06;5131626;27;20175;-78
2021/09/20 07:28:17;;;;;;;1.63;1.53;;;;;;;10.87;100.00;101196.06;5131898;28;20244;-74
2021/09/20 07:30:43;;;;;;;1.73;1.33;;;;;;;10.86;100.00;101194.44;5131418;28;20635;-73
2021/09/20 07:33:10;;;;;;;1.50;1.40;;;;;;;10.98;100.00;101202.97;5131789;28;20536;-72
2021/09/20 07:35:36;;;;;;;1.80;1.60;;;;;;;11.14;100.00;101209.88;5131457;28;20165;-73
2021/09/20 07:38:02;;;;;;;2.47;1.43;;;;;;;11.11;100.00;101204.97;5130880;28;20184;-73
2021/09/20 07:40:29;;;;;;;3.17;1.63;;;;;;;11.06;100.00;101209.72;5129267;27;20180;-73
2021/09/20 07:42:56;;;;;;;5.03;1.60;;;;;;;11.06;100.00;101212.47;5111637;28;20197;-72
2021/09/20 07:45:22;;;;;;;2.70;1.70;;;;;;;11.00;100.00;101220.75;5131134;28;20176;-72
2021/09/20 07:47:48;;;;;;;3.23;1.60;;;;;;;10.95;100.00;101215.31;5131314;27;20181;-72
2021/09/20 07:50:15;;;;;;;2.37;1.70;;;;;;;10.97;100.00;101225.97;5131830;27;20531;-72
2021/09/20 07:52:41;;;;;;;2.33;1.60;;;;;;;11.02;100.00;101223.19;5135171;27;20169;-73
2021/09/20 07:55:07;;;;;;;2.27;2.10;;;;;;;11.01;100.00;101222.38;5134924;27;20175;-72
2021/09/20 07:57:32;;;;;;;2.20;1.53;;;;;;;11.10;100.00;101229.88;5135321;27;20165;-72
2021/09/20 07:59:59;;;;;;;1.53;1.43;;;;;;;11.19;100.00;101230.88;5135294;27;20225;-72
2021/09/20 08:02:24;;;;;;;2.00;1.50;;;;;;;11.38;100.00;101241.78;5116690;27;20548;-75
2021/09/20 08:04:49;;;;;;;2.10;1.50;;;;;;;11.22;100.00;101243.94;5134963;27;20188;-73
2021/09/20 08:07:15;;;;;;;2.60;1.73;;;;;;;11.27;100.00;101235.66;5134831;27;20204;-72
2021/09/20 08:09:40;;;;;;;1.77;1.50;;;;;;;11.34;100.00;101238.84;5134855;27;20183;-72
2021/09/20 08:12:06;;;;;;;1.97;1.83;;;;;;;11.27;100.00;101238.38;5131031;27;20181;-73
2021/09/20 08:14:31;;;;;;;2.30;1.60;;;;;;;11.26;100.00;101232.09;5133554;27;20172;-75
2021/09/20 08:16:57;;;;;;;2.37;1.63;;;;;;;11.43;100.00;101249.91;5134979;27;20260;-75
2021/09/20 08:19:22;;;;;;;4.17;1.57;;;;;;;11.43;100.00;101250.75;5135021;27;20696;-75
2021/09/20 08:21:48;;;;;;;2.30;1.47;;;;;;;11.53;100.00;101249.75;5134114;27;20181;-74
2021/09/20 08:24:14;;;;;;;4.03;2.20;;;;;;;11.51;100.00;101241.84;5134124;27;20196;-74
2021/09/20 08:26:40;;;;;;;4.73;1.90;;;;;;;11.52;100.00;101248.13;5134497;27;20571;-74
2021/09/20 08:29:05;;;;;;;1.57;1.43;;;;;;;11.78;100.00;101254.81;5134500;27;20167;-75
2021/09/20 08:31:31;;;;;;;2.03;1.17;;;;;;;11.84;100.00;101250.09;5134473;27;20661;-74
2021/09/20 08:33:56;;;;;;;1.30;1.20;;;;;;;11.76;100.00;101248.03;5134206;27;20203;-74
2021/09/20 08:36:21;;;;;;;3.30;1.40;;;;;;;11.75;100.00;101247.22;5134496;27;20180;-74
2021/09/20 08:38:47;;;;;;;1.97;1.10;;;;;;;11.89;100.00;101241.81;5134239;27;20604;-73
2021/09/20 08:41:15;;;;;;;1.13;1.03;;;;;;;12.01;98.24;101250.38;5134203;27;20417;-73
2021/09/20 08:43:41;;;;;;;1.63;1.10;;;;;;;11.91;97.10;101247.81;5134150;27;20238;-73
2021/09/20 08:46:07;;;;;;;1.30;1.20;;;;;;;12.00;98.03;101251.47;5134336;27;20217;-73
2021/09/20 08:48:39;;;;;;;1.40;1.20;;;;;;;12.17;98.50;101256.38;5134263;27;20168;-75
2021/09/20 08:51:04;;;;;;;3.13;1.47;;;;;;;12.32;95.28;101266.25;5134248;27;20165;-73
2021/09/20 08:53:30;;;;;;;1.27;1.17;;;;;;;12.31;94.91;101270.09;5133440;27;20271;-73
2021/09/20 08:55:55;;;;;;;1.57;1.07;;;;;;;12.26;91.95;101265.50;5133862;27;20243;-74
2021/09/20 08:58:21;;;;;;;1.40;1.30;;;;;;;12.27;91.68;101258.09;5134035;27;20247;-73
2021/09/20 09:00:46;;;;;;;1.77;1.20;;;;;;;12.28;91.71;101263.28;5132935;27;20206;-74
2021/09/20 09:03:12;;;;;;;1.50;1.40;;;;;;;12.26;88.60;101262.78;5133864;27;20726;-73
2021/09/20 09:05:37;;;;;;;1.20;1.10;;;;;;;12.34;90.03;101266.75;5133279;27;20656;-74
2021/09/20 09:08:06;;;;;;;1.60;1.23;;;;;;;12.46;88.83;101272.56;5133832;27;20213;-73
2021/09/20 09:10:37;;;;;;;5.20;1.37;;;;;;;12.58;85.74;101269.28;5133697;27;20521;-74
2021/09/20 09:13:04;;;;;;;1.87;1.13;;;;;;;12.62;84.99;101270.31;5133667;27;20179;-73
2021/09/20 09:15:31;;;;;;;1.27;1.17;;;;;;;12.65;84.49;101269.72;5133438;27;20176;-74
2021/09/20 09:17:57;;;;;;;1.57;1.00;;;;;;;12.86;84.33;101268.16;5134091;27;20551;-74
2021/09/20 09:20:27;;;;;;;1.77;1.67;;;;;;;12.95;85.22;101280.03;5133519;27;20799;-73
2021/09/20 09:22:59;;;;;;;1.70;0.90;;;;;;;12.99;79.04;101274.75;5133526;27;20318;-75
2021/09/20 09:25:26;;;;;;;0.83;0.70;;;;;;;12.84;75.25;101283.28;5133190;27;20173;-74
2021/09/20 09:27:59;;;;;;;1.10;1.00;;;;;;;12.89;75.80;101269.50;5133464;27;20156;-72
2021/09/20 09:30:30;;;;;;;0.60;0.60;;;;;;;12.97;76.01;101272.31;5113370;27;20559;-73
2021/09/20 09:33:34;;;;;;;1.10;1.00;;;;;;;12.99;75.65;101264.59;5107895;27;20203;-73
2021/09/20 09:36:00;;;;;;;3.10;1.03;;;;;;;13.21;76.01;101276.78;5088719;27;20667;-72
2021/09/20 09:38:25;;;;;;;1.10;1.00;;;;;;;13.09;74.24;101271.78;5133166;27;20167;-74
2021/09/20 09:40:57;;;;;;;1.00;1.00;;;;;;;13.30;74.97;101277.66;5133341;27;20172;-74
2021/09/20 09:43:40;;;;;;;1.40;1.13;;;;;;;13.40;74.62;101282.94;5124935;27;20697;-74
2021/09/20 09:46:24;;;;;;;1.00;0.80;;;;;;;13.16;66.22;101272.16;5133151;27;20222;-74
2021/09/20 09:48:51;;;;;;;0.80;0.80;;;;;;;13.34;65.31;101273.19;5132910;27;20175;-73
2021/09/20 09:51:18;;;;;;;2.20;1.07;;;;;;;13.44;66.55;101283.91;5133231;27;20358;-74
2021/09/20 09:53:46;;;;;;;0.60;0.60;;;;;;;13.32;65.20;101283.69;5132638;27;20628;-72
2021/09/20 09:56:14;;;;;;;0.60;0.60;;;;;;;13.62;68.74;101282.97;5133152;27;20176;-72
2021/09/20 09:58:55;;;;;;;1.33;1.10;;;;;;;13.43;65.26;101276.81;5133451;27;20160;-72
2021/09/20 10:01:27;;;;;;;0.97;0.80;;;;;;;13.29;63.33;101276.84;5133095;27;20576;-72
2021/09/20 10:04:12;;;;;;;0.70;0.70;;;;;;;13.20;62.92;101275.97;5132619;27;20552;-72
2021/09/20 10:06:40;;;;;;;1.80;0.87;;;;;;;13.20;65.00;101280.66;5133033;27;20674;-72
2021/09/20 10:09:07;;;;;;;1.00;0.90;;;;;;;12.99;66.54;101352.38;5132857;27;20164;-72
2021/09/20 10:11:34;;;;;;;1.53;0.80;;;;;;;12.93;68.25;101078.50;5132647;27;20268;-72
2021/09/20 10:14:00;;;;;;;1.33;1.00;;;;;;;13.00;69.30;101270.88;5132605;27;20180;-72
2021/09/20 10:16:27;;;;;;;3.00;1.20;;;;;;;12.92;68.08;101198.38;5132799;27;20173;-72
2021/09/20 10:18:53;;;;;;;2.47;1.20;;;;;;;12.85;67.97;101159.56;5130848;27;20652;-72
2021/09/20 10:21:19;;;;;;;1.20;1.10;;;;;;;12.88;70.29;101161.72;5131263;27;20180;-72
2021/09/20 10:23:44;;;;;;;1.17;0.97;;;;;;;13.00;71.87;101158.41;5122281;27;20204;-72
2021/09/20 10:26:09;;;;;;;0.60;0.60;;;;;;;13.24;72.82;101149.94;5132581;27;20176;-72
2021/09/20 10:28:35;;;;;;;1.20;0.70;;;;;;;13.35;72.25;101154.06;5132601;27;20172;-72
2021/09/20 10:31:01;;;;;;;4.47;1.40;;;;;;;13.48;71.69;101160.59;5132432;27;20168;-72
2021/09/20 10:33:27;;;;;;;1.83;1.10;;;;;;;13.38;69.60;101151.50;5132491;27;20169;-72
2021/09/20 10:35:54;;;;;;;0.73;0.73;;;;;;;13.30;67.93;101193.38;5132229;27;20196;-72
2021/09/20 10:38:20;;;;;;;0.77;0.77;;;;;;;13.62;69.50;101159.41;5115527;27;20672;-74
2021/09/20 10:41:12;;;;;;;1.27;0.70;;;;;;;13.88;67.36;101167.75;5142585;27;20173;-73
2021/09/20 10:43:46;;;;;;;1.20;0.90;;;;;;;13.69;66.63;101162.50;5131579;27;21026;-74
2021/09/20 10:46:28;;;;;;;2.30;0.80;;;;;;;13.49;65.08;101156.72;5114027;27;20715;-73
2021/09/20 10:48:55;;;;;;;1.57;1.00;;;;;;;13.31;66.95;101155.81;5125500;27;20631;-73
2021/09/20 10:51:42;;;;;;;1.40;1.13;;;;;;;13.26;69.45;101158.66;5132182;27;20688;-73
2021/09/20 10:54:12;;;;;;;0.80;0.80;;;;;;;13.24;67.97;101158.97;5113065;27;20671;-73
2021/09/20 10:56:38;;;;;;;1.10;1.00;;;;;;;13.21;68.30;101161.53;5113594;27;20275;-73
2021/09/20 10:59:08;;;;;;;1.30;1.17;;;;;;;13.17;67.67;101158.56;5118643;27;20566;-73
2021/09/20 11:01:35;;;;;;;1.10;0.80;;;;;;;13.23;68.61;101160.09;5132160;27;20168;-73
2021/09/20 11:04:05;;;;;;;0.73;0.73;;;;;;;13.38;68.29;101151.50;5127488;27;20632;-72
2021/09/20 11:07:04;;;;;;;2.00;0.83;;;;;;;13.37;67.85;101149.88;5131648;27;20176;-73
2021/09/20 11:09:37;;;;;;;1.23;1.10;;;;;;;13.53;67.46;101155.78;5127746;27;20189;-73
2021/09/20 11:12:05;;;;;;;1.00;0.90;;;;;;;13.35;67.52;101146.63;5131807;27;20199;-72
2021/09/20 11:14:40;;;;;;;1.00;0.93;;;;;;;13.44;68.31;101143.91;5131746;27;20246;-73
2021/09/20 11:17:18;;;;;;;0.90;0.90;;;;;;;13.42;68.13;101148.91;5131793;27;20533;-72